sensor_id;sensor_type;location;lat;lon;timestamp;temperature;humidity
18268;DHT22;9260;49.998;19.880;2023-06-22T00:03:10;15.60;1.00
18268;DHT22;9260;49.998;19.880;2023-06-22T00:13:14;15.40;1.00
18268;DHT22;9260;49.998;19.880;2023-06-22T00:23:20;15.40;1.00
18268;DHT22;9260;49.998;19.880;2023-06-22T00:33:25;15.50;1.00
18268;DHT22;9260;49.998;19.880;2023-06-22T00:43:31;15.90;1.00
18268;DHT22;9260;49.998;19.880;2023-06-22T00:53:37;16.50;1.00
18268;DHT22;9260;49.998;19.880;2023-06-22T01:03:41;16.10;1.00
18268;DHT22;9260;49.998;19.880;2023-06-22T01:13:46;15.80;1.00
18268;DHT22;9260;49.998;19.880;2023-06-22T01:23:56;15.80;1.00
18268;DHT22;9260;49.998;19.880;2023-06-22T01:34:09;16.10;1.00
18268;DHT22;9260;49.998;19.880;2023-06-22T01:44:13;15.60;1.00
18268;DHT22;9260;49.998;19.880;2023-06-22T01:54:17;15.40;1.00
18268;DHT22;9260;49.998;19.880;2023-06-22T02:04:21;15.50;1.00
18268;DHT22;9260;49.998;19.880;2023-06-22T02:14:29;15.40;1.00
18268;DHT22;9260;49.998;19.880;2023-06-22T02:24:33;15.40;1.00
18268;DHT22;9260;49.998;19.880;2023-06-22T02:34:38;15.50;1.00
18268;DHT22;9260;49.998;19.880;2023-06-22T02:44:41;15.40;1.00
18268;DHT22;9260;49.998;19.880;2023-06-22T02:54:46;15.50;1.00
18268;DHT22;9260;49.998;19.880;2023-06-22T03:04:49;15.30;1.00
18268;DHT22;9260;49.998;19.880;2023-06-22T03:14:57;15.40;1.00
18268;DHT22;9260;49.998;19.880;2023-06-22T03:25:00;15.50;1.00
18268;DHT22;9260;49.998;19.880;2023-06-22T03:35:06;15.70;1.00
18268;DHT22;9260;49.998;19.880;2023-06-22T03:45:11;17.10;1.00
18268;DHT22;9260;49.998;19.880;2023-06-22T03:55:16;15.80;1.00
18268;DHT22;9260;49.998;19.880;2023-06-22T04:05:20;15.90;1.00
18268;DHT22;9260;49.998;19.880;2023-06-22T04:15:25;15.90;1.00
18268;DHT22;9260;49.998;19.880;2023-06-22T04:25:29;16.50;99.90
18268;DHT22;9260;49.998;19.880;2023-06-22T04:35:33;16.80;1.00
18268;DHT22;9260;49.998;19.880;2023-06-22T04:45:36;17.50;1.00
18268;DHT22;9260;49.998;19.880;2023-06-22T04:55:42;18.00;99.90
18268;DHT22;9260;49.998;19.880;2023-06-22T05:05:47;18.60;1.00
18268;DHT22;9260;49.998;19.880;2023-06-22T05:15:52;19.10;99.90
18268;DHT22;9260;49.998;19.880;2023-06-22T05:26:03;19.60;99.90
18268;DHT22;9260;49.998;19.880;2023-06-22T05:36:07;20.10;99.90
18268;DHT22;9260;49.998;19.880;2023-06-22T05:46:11;20.60;99.90
18268;DHT22;9260;49.998;19.880;2023-06-22T05:56:16;21.30;99.90
18268;DHT22;9260;49.998;19.880;2023-06-22T06:06:19;21.80;99.90
18268;DHT22;9260;49.998;19.880;2023-06-22T06:16:25;22.30;99.90
18268;DHT22;9260;49.998;19.880;2023-06-22T06:26:29;23.00;99.90
18268;DHT22;9260;49.998;19.880;2023-06-22T06:36:36;23.70;99.90
18268;DHT22;9260;49.998;19.880;2023-06-22T06:46:39;24.90;99.90
18268;DHT22;9260;49.998;19.880;2023-06-22T06:56:45;25.60;99.90
18268;DHT22;9260;49.998;19.880;2023-06-22T07:06:50;26.50;99.90
18268;DHT22;9260;49.998;19.880;2023-06-22T07:16:54;27.50;99.90
18268;DHT22;9260;49.998;19.880;2023-06-22T07:26:57;28.40;99.90
18268;DHT22;9260;49.998;19.880;2023-06-22T07:37:02;29.40;99.90
18268;DHT22;9260;49.998;19.880;2023-06-22T07:47:06;30.20;99.90
18268;DHT22;9260;49.998;19.880;2023-06-22T07:57:11;30.60;99.90
18268;DHT22;9260;49.998;19.880;2023-06-22T08:07:14;30.90;99.90
18268;DHT22;9260;49.998;19.880;2023-06-22T08:17:19;31.60;99.90
18268;DHT22;9260;49.998;19.880;2023-06-22T08:27:22;32.10;99.90
18268;DHT22;9260;49.998;19.880;2023-06-22T08:37:27;32.30;99.90
18268;DHT22;9260;49.998;19.880;2023-06-22T08:47:33;31.80;99.90
18268;DHT22;9260;49.998;19.880;2023-06-22T08:57:38;31.30;99.90
18268;DHT22;9260;49.998;19.880;2023-06-22T09:07:41;34.90;99.90
18268;DHT22;9260;49.998;19.880;2023-06-22T09:17:46;33.20;99.90
18268;DHT22;9260;49.998;19.880;2023-06-22T09:27:50;39.80;99.90
18268;DHT22;9260;49.998;19.880;2023-06-22T09:37:54;38.70;99.90
18268;DHT22;9260;49.998;19.880;2023-06-22T09:47:58;43.10;99.90
18268;DHT22;9260;49.998;19.880;2023-06-22T09:58:02;45.50;99.90
18268;DHT22;9260;49.998;19.880;2023-06-22T10:08:06;38.40;99.90
18268;DHT22;9260;49.998;19.880;2023-06-22T10:18:13;42.50;99.90
18268;DHT22;9260;49.998;19.880;2023-06-22T10:28:16;42.90;99.90
18268;DHT22;9260;49.998;19.880;2023-06-22T10:38:20;44.30;99.90
18268;DHT22;9260;49.998;19.880;2023-06-22T10:48:24;47.40;99.90
18268;DHT22;9260;49.998;19.880;2023-06-22T10:58:28;42.80;99.90
18268;DHT22;9260;49.998;19.880;2023-06-22T11:08:32;44.40;99.90
18268;DHT22;9260;49.998;19.880;2023-06-22T11:18:36;47.00;99.90
18268;DHT22;9260;49.998;19.880;2023-06-22T11:28:40;42.00;99.90
18268;DHT22;9260;49.998;19.880;2023-06-22T11:38:44;41.80;99.90
18268;DHT22;9260;49.998;19.880;2023-06-22T11:48:47;42.40;99.90
18268;DHT22;9260;49.998;19.880;2023-06-22T11:58:52;38.60;99.90
18268;DHT22;9260;49.998;19.880;2023-06-22T12:08:55;37.50;99.90
18268;DHT22;9260;49.998;19.880;2023-06-22T12:19:00;37.70;99.90
18268;DHT22;9260;49.998;19.880;2023-06-22T12:29:03;37.30;99.90
18268;DHT22;9260;49.998;19.880;2023-06-22T12:39:08;35.00;99.90
18268;DHT22;9260;49.998;19.880;2023-06-22T12:49:11;34.90;99.90
18268;DHT22;9260;49.998;19.880;2023-06-22T12:59:16;34.40;99.90
18268;DHT22;9260;49.998;19.880;2023-06-22T13:09:19;34.60;99.90
18268;DHT22;9260;49.998;19.880;2023-06-22T13:19:24;33.40;99.90
18268;DHT22;9260;49.998;19.880;2023-06-22T13:29:30;33.10;99.90
18268;DHT22;9260;49.998;19.880;2023-06-22T13:39:35;33.20;99.90
18268;DHT22;9260;49.998;19.880;2023-06-22T13:49:38;33.80;99.90
18268;DHT22;9260;49.998;19.880;2023-06-22T13:59:42;34.30;99.90
18268;DHT22;9260;49.998;19.880;2023-06-22T14:09:46;33.30;99.90
18268;DHT22;9260;49.998;19.880;2023-06-22T14:19:51;33.60;99.90
18268;DHT22;9260;49.998;19.880;2023-06-22T14:29:55;33.50;99.90
18268;DHT22;9260;49.998;19.880;2023-06-22T14:39:59;33.10;99.90
18268;DHT22;9260;49.998;19.880;2023-06-22T14:50:03;32.80;99.90
18268;DHT22;9260;49.998;19.880;2023-06-22T15:00:09;32.20;99.90
18268;DHT22;9260;49.998;19.880;2023-06-22T15:10:12;31.50;99.90
18268;DHT22;9260;49.998;19.880;2023-06-22T15:20:17;31.10;99.90
18268;DHT22;9260;49.998;19.880;2023-06-22T15:30:20;30.20;99.90
18268;DHT22;9260;49.998;19.880;2023-06-22T15:40:25;29.90;99.90
18268;DHT22;9260;49.998;19.880;2023-06-22T15:50:29;29.50;99.90
18268;DHT22;9260;49.998;19.880;2023-06-22T16:00:34;28.90;99.90
18268;DHT22;9260;49.998;19.880;2023-06-22T16:10:38;28.40;99.90
18268;DHT22;9260;49.998;19.880;2023-06-22T16:20:44;28.10;99.90
18268;DHT22;9260;49.998;19.880;2023-06-22T16:30:48;27.60;1.00
18268;DHT22;9260;49.998;19.880;2023-06-22T16:40:57;27.20;1.00
18268;DHT22;9260;49.998;19.880;2023-06-22T17:01:06;26.40;1.00
18268;DHT22;9260;49.998;19.880;2023-06-22T17:11:11;25.80;26.40
18268;DHT22;9260;49.998;19.880;2023-06-22T17:51:35;24.60;99.90
18268;DHT22;9260;49.998;19.880;2023-06-22T18:21:49;23.30;97.80
18268;DHT22;9260;49.998;19.880;2023-06-22T18:31:52;22.80;99.90
18268;DHT22;9260;49.998;19.880;2023-06-22T18:41:58;22.30;99.90
18268;DHT22;9260;49.998;19.880;2023-06-22T18:52:05;21.80;99.90
18268;DHT22;9260;49.998;19.880;2023-06-22T19:02:11;21.30;99.90
18268;DHT22;9260;49.998;19.880;2023-06-22T19:22:20;20.40;99.90
18268;DHT22;9260;49.998;19.880;2023-06-22T19:32:28;19.90;99.90
18268;DHT22;9260;49.998;19.880;2023-06-22T20:22:55;18.10;99.90
18268;DHT22;9260;49.998;19.880;2023-06-22T20:43:08;17.80;99.90
18268;DHT22;9260;49.998;19.880;2023-06-22T21:23:25;17.70;1.00
18268;DHT22;9260;49.998;19.880;2023-06-22T21:33:29;17.70;1.00
18268;DHT22;9260;49.998;19.880;2023-06-22T21:43:33;17.60;1.00
18268;DHT22;9260;49.998;19.880;2023-06-22T21:53:37;17.50;1.00
18268;DHT22;9260;49.998;19.880;2023-06-22T22:03:42;17.30;1.00
18268;DHT22;9260;49.998;19.880;2023-06-22T22:23:51;17.20;1.00
18268;DHT22;9260;49.998;19.880;2023-06-22T22:33:54;17.10;1.00
18268;DHT22;9260;49.998;19.880;2023-06-22T22:43:59;17.00;1.00
18268;DHT22;9260;49.998;19.880;2023-06-22T22:54:02;16.90;1.00
18268;DHT22;9260;49.998;19.880;2023-06-22T23:14:12;16.50;1.00
18268;DHT22;9260;49.998;19.880;2023-06-22T23:24:18;16.40;1.00
18268;DHT22;9260;49.998;19.880;2023-06-22T23:34:21;16.30;1.00
18268;DHT22;9260;49.998;19.880;2023-06-22T23:44:26;16.20;1.00
